sensor_id;sensor_type;location;lat;lon;timestamp;temperature;humidity
12817;DHT22;6473;51.552;6.716;2023-04-19T00:07:24;10.70;99.90
12817;DHT22;6473;51.552;6.716;2023-04-19T00:14:09;10.70;99.90
12817;DHT22;6473;51.552;6.716;2023-04-19T00:16:36;10.70;99.90
12817;DHT22;6473;51.552;6.716;2023-04-19T00:19:03;10.80;99.90
12817;DHT22;6473;51.552;6.716;2023-04-19T00:21:29;10.70;99.90
12817;DHT22;6473;51.552;6.716;2023-04-19T00:23:58;10.80;99.90
12817;DHT22;6473;51.552;6.716;2023-04-19T00:33:41;10.80;99.90
12817;DHT22;6473;51.552;6.716;2023-04-19T00:40:10;10.90;99.90
12817;DHT22;6473;51.552;6.716;2023-04-19T00:46:45;10.90;99.90
12817;DHT22;6473;51.552;6.716;2023-04-19T01:00:04;10.90;99.90
12817;DHT22;6473;51.552;6.716;2023-04-19T01:02:35;10.90;99.90
12817;DHT22;6473;51.552;6.716;2023-04-19T01:05:05;10.80;99.90
12817;DHT22;6473;51.552;6.716;2023-04-19T01:07:32;10.70;99.90
12817;DHT22;6473;51.552;6.716;2023-04-19T01:10:00;10.80;99.90
12817;DHT22;6473;51.552;6.716;2023-04-19T01:12:26;10.70;99.90
12817;DHT22;6473;51.552;6.716;2023-04-19T01:14:53;10.70;99.90
12817;DHT22;6473;51.552;6.716;2023-04-19T01:17:22;10.80;99.90
12817;DHT22;6473;51.552;6.716;2023-04-19T01:19:49;10.80;99.90
12817;DHT22;6473;51.552;6.716;2023-04-19T01:22:19;10.80;99.90
12817;DHT22;6473;51.552;6.716;2023-04-19T01:24:47;10.80;99.90
12817;DHT22;6473;51.552;6.716;2023-04-19T01:27:14;10.70;99.90
12817;DHT22;6473;51.552;6.716;2023-04-19T01:29:42;10.70;99.90
12817;DHT22;6473;51.552;6.716;2023-04-19T01:32:09;10.70;99.90
12817;DHT22;6473;51.552;6.716;2023-04-19T01:34:38;10.60;99.90
12817;DHT22;6473;51.552;6.716;2023-04-19T01:37:04;10.50;99.90
12817;DHT22;6473;51.552;6.716;2023-04-19T01:39:34;10.40;99.90
12817;DHT22;6473;51.552;6.716;2023-04-19T01:42:01;10.30;99.90
12817;DHT22;6473;51.552;6.716;2023-04-19T01:46:56;10.20;99.90
12817;DHT22;6473;51.552;6.716;2023-04-19T01:49:23;10.10;99.90
12817;DHT22;6473;51.552;6.716;2023-04-19T01:51:50;10.00;99.90
12817;DHT22;6473;51.552;6.716;2023-04-19T01:54:17;10.00;99.90
12817;DHT22;6473;51.552;6.716;2023-04-19T01:56:45;10.00;99.90
12817;DHT22;6473;51.552;6.716;2023-04-19T01:59:12;10.00;99.90
12817;DHT22;6473;51.552;6.716;2023-04-19T02:01:39;10.00;99.90
12817;DHT22;6473;51.552;6.716;2023-04-19T02:04:06;10.00;99.90
12817;DHT22;6473;51.552;6.716;2023-04-19T02:06:33;10.10;99.90
12817;DHT22;6473;51.552;6.716;2023-04-19T02:09:03;10.10;99.90
12817;DHT22;6473;51.552;6.716;2023-04-19T02:11:30;10.10;99.90
12817;DHT22;6473;51.552;6.716;2023-04-19T02:13:58;10.10;99.90
12817;DHT22;6473;51.552;6.716;2023-04-19T02:16:26;10.20;99.90
12817;DHT22;6473;51.552;6.716;2023-04-19T02:18:53;10.20;99.90
12817;DHT22;6473;51.552;6.716;2023-04-19T02:21:19;10.30;99.90
12817;DHT22;6473;51.552;6.716;2023-04-19T02:23:46;10.30;99.90
12817;DHT22;6473;51.552;6.716;2023-04-19T02:26:14;10.30;99.90
12817;DHT22;6473;51.552;6.716;2023-04-19T02:28:42;10.30;99.90
12817;DHT22;6473;51.552;6.716;2023-04-19T02:31:12;10.30;99.90
12817;DHT22;6473;51.552;6.716;2023-04-19T02:33:40;10.40;99.90
12817;DHT22;6473;51.552;6.716;2023-04-19T02:36:07;10.40;99.90
12817;DHT22;6473;51.552;6.716;2023-04-19T02:38:34;10.40;99.90
12817;DHT22;6473;51.552;6.716;2023-04-19T02:41:01;10.40;99.90
12817;DHT22;6473;51.552;6.716;2023-04-19T02:43:28;10.40;99.90
12817;DHT22;6473;51.552;6.716;2023-04-19T02:48:24;10.50;99.90
12817;DHT22;6473;51.552;6.716;2023-04-19T02:50:51;10.50;99.90
12817;DHT22;6473;51.552;6.716;2023-04-19T02:53:18;10.50;99.90
12817;DHT22;6473;51.552;6.716;2023-04-19T02:55:48;10.50;99.90
12817;DHT22;6473;51.552;6.716;2023-04-19T02:58:18;10.50;99.90
12817;DHT22;6473;51.552;6.716;2023-04-19T03:01:11;10.40;99.90
12817;DHT22;6473;51.552;6.716;2023-04-19T03:03:39;10.40;99.90
12817;DHT22;6473;51.552;6.716;2023-04-19T03:06:07;10.50;99.90
12817;DHT22;6473;51.552;6.716;2023-04-19T03:08:34;10.40;99.90
12817;DHT22;6473;51.552;6.716;2023-04-19T03:11:01;10.50;99.90
12817;DHT22;6473;51.552;6.716;2023-04-19T03:13:29;10.40;99.90
12817;DHT22;6473;51.552;6.716;2023-04-19T03:15:56;10.40;99.90
12817;DHT22;6473;51.552;6.716;2023-04-19T03:18:23;10.30;99.90
12817;DHT22;6473;51.552;6.716;2023-04-19T03:20:55;10.40;99.90
12817;DHT22;6473;51.552;6.716;2023-04-19T03:23:22;10.30;99.90
12817;DHT22;6473;51.552;6.716;2023-04-19T03:25:49;10.40;99.90
12817;DHT22;6473;51.552;6.716;2023-04-19T03:28:39;10.30;99.90
12817;DHT22;6473;51.552;6.716;2023-04-19T03:31:17;10.30;99.90
12817;DHT22;6473;51.552;6.716;2023-04-19T03:36:17;10.30;99.90
12817;DHT22;6473;51.552;6.716;2023-04-19T03:38:45;10.30;99.90
12817;DHT22;6473;51.552;6.716;2023-04-19T03:41:18;10.30;99.90
12817;DHT22;6473;51.552;6.716;2023-04-19T03:43:45;10.30;99.90
12817;DHT22;6473;51.552;6.716;2023-04-19T03:46:12;10.20;99.90
12817;DHT22;6473;51.552;6.716;2023-04-19T03:48:39;10.20;99.90
12817;DHT22;6473;51.552;6.716;2023-04-19T03:51:06;10.10;99.90
12817;DHT22;6473;51.552;6.716;2023-04-19T03:53:35;10.10;99.90
12817;DHT22;6473;51.552;6.716;2023-04-19T03:56:02;10.10;99.90
12817;DHT22;6473;51.552;6.716;2023-04-19T03:58:31;10.10;99.90
12817;DHT22;6473;51.552;6.716;2023-04-19T04:01:03;10.00;99.90
12817;DHT22;6473;51.552;6.716;2023-04-19T04:03:31;10.00;99.90
12817;DHT22;6473;51.552;6.716;2023-04-19T04:05:58;9.80;99.90
12817;DHT22;6473;51.552;6.716;2023-04-19T04:08:25;9.80;99.90
12817;DHT22;6473;51.552;6.716;2023-04-19T04:10:53;9.70;99.90
12817;DHT22;6473;51.552;6.716;2023-04-19T04:13:20;9.60;99.90
12817;DHT22;6473;51.552;6.716;2023-04-19T04:20:54;9.40;99.90
12817;DHT22;6473;51.552;6.716;2023-04-19T04:23:21;9.30;99.90
12817;DHT22;6473;51.552;6.716;2023-04-19T04:25:56;9.20;99.90
12817;DHT22;6473;51.552;6.716;2023-04-19T04:28:31;9.10;99.90
12817;DHT22;6473;51.552;6.716;2023-04-19T04:30:59;9.10;99.90
12817;DHT22;6473;51.552;6.716;2023-04-19T04:33:29;9.00;99.90
12817;DHT22;6473;51.552;6.716;2023-04-19T04:35:57;9.00;99.90
12817;DHT22;6473;51.552;6.716;2023-04-19T04:38:28;8.90;99.90
12817;DHT22;6473;51.552;6.716;2023-04-19T04:40:57;8.90;99.90
12817;DHT22;6473;51.552;6.716;2023-04-19T04:43:25;8.80;99.90
12817;DHT22;6473;51.552;6.716;2023-04-19T04:45:54;8.90;99.90
12817;DHT22;6473;51.552;6.716;2023-04-19T04:48:23;8.90;99.90
12817;DHT22;6473;51.552;6.716;2023-04-19T04:50:50;8.90;99.90
12817;DHT22;6473;51.552;6.716;2023-04-19T04:53:18;8.90;99.90
12817;DHT22;6473;51.552;6.716;2023-04-19T04:55:45;8.80;99.90
12817;DHT22;6473;51.552;6.716;2023-04-19T04:58:14;8.80;99.90
12817;DHT22;6473;51.552;6.716;2023-04-19T05:03:24;8.90;99.90
12817;DHT22;6473;51.552;6.716;2023-04-19T05:08:25;8.90;99.90
12817;DHT22;6473;51.552;6.716;2023-04-19T05:13:30;8.80;99.90
12817;DHT22;6473;51.552;6.716;2023-04-19T05:18:26;8.80;99.90
12817;DHT22;6473;51.552;6.716;2023-04-19T05:20:54;8.80;99.90
12817;DHT22;6473;51.552;6.716;2023-04-19T05:23:25;8.80;99.90
12817;DHT22;6473;51.552;6.716;2023-04-19T05:25:53;8.90;99.90
12817;DHT22;6473;51.552;6.716;2023-04-19T05:28:22;8.90;99.90
12817;DHT22;6473;51.552;6.716;2023-04-19T05:31:05;8.90;99.90
12817;DHT22;6473;51.552;6.716;2023-04-19T05:36:11;9.30;99.90
12817;DHT22;6473;51.552;6.716;2023-04-19T05:38:39;9.60;99.90
12817;DHT22;6473;51.552;6.716;2023-04-19T05:41:06;9.90;99.90
12817;DHT22;6473;51.552;6.716;2023-04-19T05:43:33;10.10;99.90
12817;DHT22;6473;51.552;6.716;2023-04-19T05:46:03;10.40;95.00
12817;DHT22;6473;51.552;6.716;2023-04-19T05:54:07;10.00;89.70
12817;DHT22;6473;51.552;6.716;2023-04-19T05:56:39;9.90;92.00
12817;DHT22;6473;51.552;6.716;2023-04-19T06:01:37;9.60;91.70
12817;DHT22;6473;51.552;6.716;2023-04-19T06:04:04;9.40;92.60
12817;DHT22;6473;51.552;6.716;2023-04-19T06:06:31;9.30;93.10
12817;DHT22;6473;51.552;6.716;2023-04-19T06:08:58;9.20;90.40
12817;DHT22;6473;51.552;6.716;2023-04-19T06:11:25;9.10;91.70
12817;DHT22;6473;51.552;6.716;2023-04-19T06:13:52;9.00;93.00
12817;DHT22;6473;51.552;6.716;2023-04-19T06:16:19;9.00;92.80
12817;DHT22;6473;51.552;6.716;2023-04-19T06:18:49;9.00;92.30
12817;DHT22;6473;51.552;6.716;2023-04-19T06:21:15;9.00;91.50
12817;DHT22;6473;51.552;6.716;2023-04-19T06:26:09;8.90;89.10
12817;DHT22;6473;51.552;6.716;2023-04-19T06:28:36;8.90;88.60
12817;DHT22;6473;51.552;6.716;2023-04-19T06:31:03;8.80;90.00
12817;DHT22;6473;51.552;6.716;2023-04-19T06:33:31;8.90;89.60
12817;DHT22;6473;51.552;6.716;2023-04-19T06:35:59;9.00;90.20
12817;DHT22;6473;51.552;6.716;2023-04-19T06:38:26;9.20;87.50
12817;DHT22;6473;51.552;6.716;2023-04-19T06:40:53;9.40;88.40
12817;DHT22;6473;51.552;6.716;2023-04-19T06:43:20;9.70;82.20
12817;DHT22;6473;51.552;6.716;2023-04-19T06:45:47;9.90;65.40
12817;DHT22;6473;51.552;6.716;2023-04-19T06:48:14;10.50;67.10
12817;DHT22;6473;51.552;6.716;2023-04-19T06:50:40;11.40;56.90
12817;DHT22;6473;51.552;6.716;2023-04-19T06:53:09;12.10;22.80
12817;DHT22;6473;51.552;6.716;2023-04-19T06:55:35;12.90;13.50
12817;DHT22;6473;51.552;6.716;2023-04-19T07:03:00;14.30;1.00
12817;DHT22;6473;51.552;6.716;2023-04-19T07:05:27;14.50;1.00
12817;DHT22;6473;51.552;6.716;2023-04-19T07:07:54;14.60;1.00
12817;DHT22;6473;51.552;6.716;2023-04-19T07:10:22;14.60;1.00
12817;DHT22;6473;51.552;6.716;2023-04-19T07:12:50;14.70;1.00
12817;DHT22;6473;51.552;6.716;2023-04-19T07:15:17;14.70;1.00
12817;DHT22;6473;51.552;6.716;2023-04-19T07:17:43;14.20;1.00
12817;DHT22;6473;51.552;6.716;2023-04-19T07:20:11;14.40;1.00
12817;DHT22;6473;51.552;6.716;2023-04-19T07:22:38;14.60;1.00
12817;DHT22;6473;51.552;6.716;2023-04-19T07:25:05;14.70;1.00
12817;DHT22;6473;51.552;6.716;2023-04-19T07:27:34;14.80;1.00
12817;DHT22;6473;51.552;6.716;2023-04-19T07:30:01;14.80;1.00
12817;DHT22;6473;51.552;6.716;2023-04-19T07:32:27;14.80;1.00
12817;DHT22;6473;51.552;6.716;2023-04-19T07:34:54;15.20;1.00
12817;DHT22;6473;51.552;6.716;2023-04-19T07:37:21;15.70;1.00
12817;DHT22;6473;51.552;6.716;2023-04-19T07:39:48;15.80;1.00
12817;DHT22;6473;51.552;6.716;2023-04-19T07:42:15;15.70;1.00
12817;DHT22;6473;51.552;6.716;2023-04-19T07:44:45;15.20;1.00
12817;DHT22;6473;51.552;6.716;2023-04-19T07:47:12;15.50;1.00
12817;DHT22;6473;51.552;6.716;2023-04-19T07:49:39;15.70;1.00
12817;DHT22;6473;51.552;6.716;2023-04-19T07:52:06;15.70;1.00
12817;DHT22;6473;51.552;6.716;2023-04-19T07:54:33;15.80;1.00
12817;DHT22;6473;51.552;6.716;2023-04-19T07:57:00;16.10;1.00
12817;DHT22;6473;51.552;6.716;2023-04-19T08:01:56;16.10;1.00
12817;DHT22;6473;51.552;6.716;2023-04-19T08:04:23;16.30;1.00
12817;DHT22;6473;51.552;6.716;2023-04-19T08:06:50;16.00;1.00
12817;DHT22;6473;51.552;6.716;2023-04-19T08:09:17;16.30;1.00
12817;DHT22;6473;51.552;6.716;2023-04-19T08:11:44;16.50;1.00
12817;DHT22;6473;51.552;6.716;2023-04-19T08:14:11;16.60;1.00
12817;DHT22;6473;51.552;6.716;2023-04-19T08:16:38;16.50;1.00
12817;DHT22;6473;51.552;6.716;2023-04-19T08:19:06;16.80;1.00
12817;DHT22;6473;51.552;6.716;2023-04-19T08:21:33;16.40;1.00
12817;DHT22;6473;51.552;6.716;2023-04-19T08:23:59;16.20;1.00
12817;DHT22;6473;51.552;6.716;2023-04-19T08:26:26;16.20;1.00
12817;DHT22;6473;51.552;6.716;2023-04-19T08:28:53;16.10;1.00
12817;DHT22;6473;51.552;6.716;2023-04-19T08:31:20;16.40;1.00
12817;DHT22;6473;51.552;6.716;2023-04-19T08:33:47;16.40;1.00
12817;DHT22;6473;51.552;6.716;2023-04-19T08:36:15;16.60;1.00
12817;DHT22;6473;51.552;6.716;2023-04-19T08:38:42;16.50;1.00
12817;DHT22;6473;51.552;6.716;2023-04-19T08:41:10;16.60;1.00
12817;DHT22;6473;51.552;6.716;2023-04-19T08:43:38;16.60;1.00
12817;DHT22;6473;51.552;6.716;2023-04-19T08:46:10;16.60;1.00
12817;DHT22;6473;51.552;6.716;2023-04-19T08:48:37;16.50;1.00
12817;DHT22;6473;51.552;6.716;2023-04-19T08:51:05;16.50;1.00
12817;DHT22;6473;51.552;6.716;2023-04-19T08:53:34;16.90;1.00
12817;DHT22;6473;51.552;6.716;2023-04-19T08:56:01;17.00;1.00
12817;DHT22;6473;51.552;6.716;2023-04-19T08:58:28;17.10;1.00
12817;DHT22;6473;51.552;6.716;2023-04-19T09:00:57;17.30;1.00
12817;DHT22;6473;51.552;6.716;2023-04-19T09:03:25;17.10;1.00
12817;DHT22;6473;51.552;6.716;2023-04-19T09:05:52;17.60;1.00
12817;DHT22;6473;51.552;6.716;2023-04-19T09:08:23;17.10;1.00
12817;DHT22;6473;51.552;6.716;2023-04-19T09:10:56;17.60;1.00
12817;DHT22;6473;51.552;6.716;2023-04-19T09:13:24;17.60;1.00
12817;DHT22;6473;51.552;6.716;2023-04-19T09:15:51;17.50;1.00
12817;DHT22;6473;51.552;6.716;2023-04-19T09:18:19;17.60;1.00
12817;DHT22;6473;51.552;6.716;2023-04-19T09:20:46;16.70;1.00
12817;DHT22;6473;51.552;6.716;2023-04-19T09:23:15;16.30;1.00
12817;DHT22;6473;51.552;6.716;2023-04-19T09:25:51;15.80;1.00
12817;DHT22;6473;51.552;6.716;2023-04-19T09:28:20;15.80;1.00
12817;DHT22;6473;51.552;6.716;2023-04-19T09:30:47;16.70;1.00
12817;DHT22;6473;51.552;6.716;2023-04-19T09:33:30;16.40;1.00
12817;DHT22;6473;51.552;6.716;2023-04-19T09:35:58;16.30;1.00
12817;DHT22;6473;51.552;6.716;2023-04-19T09:38:25;16.10;1.00
12817;DHT22;6473;51.552;6.716;2023-04-19T09:41:05;16.40;1.00
12817;DHT22;6473;51.552;6.716;2023-04-19T09:43:34;16.50;1.00
12817;DHT22;6473;51.552;6.716;2023-04-19T09:48:28;16.30;1.00
12817;DHT22;6473;51.552;6.716;2023-04-19T09:50:56;16.70;1.00
12817;DHT22;6473;51.552;6.716;2023-04-19T09:53:24;17.20;1.00
12817;DHT22;6473;51.552;6.716;2023-04-19T09:55:52;17.80;1.00
12817;DHT22;6473;51.552;6.716;2023-04-19T09:58:19;17.70;1.00
12817;DHT22;6473;51.552;6.716;2023-04-19T10:00:48;17.20;1.00
12817;DHT22;6473;51.552;6.716;2023-04-19T10:03:18;17.70;1.00
12817;DHT22;6473;51.552;6.716;2023-04-19T10:05:46;17.70;1.00
12817;DHT22;6473;51.552;6.716;2023-04-19T10:08:13;17.30;1.00
12817;DHT22;6473;51.552;6.716;2023-04-19T10:10:41;17.30;1.00
12817;DHT22;6473;51.552;6.716;2023-04-19T10:13:11;17.70;1.00
12817;DHT22;6473;51.552;6.716;2023-04-19T10:15:40;17.90;1.00
12817;DHT22;6473;51.552;6.716;2023-04-19T10:18:09;18.50;1.00
12817;DHT22;6473;51.552;6.716;2023-04-19T10:20:41;18.30;1.00
12817;DHT22;6473;51.552;6.716;2023-04-19T10:23:12;18.40;1.00
12817;DHT22;6473;51.552;6.716;2023-04-19T10:25:39;18.70;1.00
12817;DHT22;6473;51.552;6.716;2023-04-19T10:28:05;18.80;1.00
12817;DHT22;6473;51.552;6.716;2023-04-19T10:30:32;19.10;1.00
12817;DHT22;6473;51.552;6.716;2023-04-19T10:32:59;18.90;1.00
12817;DHT22;6473;51.552;6.716;2023-04-19T10:35:35;18.20;1.00
12817;DHT22;6473;51.552;6.716;2023-04-19T10:38:07;18.00;1.00
12817;DHT22;6473;51.552;6.716;2023-04-19T10:40:54;17.10;1.00
12817;DHT22;6473;51.552;6.716;2023-04-19T10:43:22;17.30;1.00
12817;DHT22;6473;51.552;6.716;2023-04-19T10:45:49;17.70;1.00
12817;DHT22;6473;51.552;6.716;2023-04-19T10:48:31;18.50;1.00
12817;DHT22;6473;51.552;6.716;2023-04-19T10:51:01;18.70;1.00
12817;DHT22;6473;51.552;6.716;2023-04-19T10:53:55;18.30;1.00
12817;DHT22;6473;51.552;6.716;2023-04-19T10:59:36;19.10;1.00
12817;DHT22;6473;51.552;6.716;2023-04-19T11:02:04;19.30;1.00
12817;DHT22;6473;51.552;6.716;2023-04-19T11:04:57;20.10;1.00
12817;DHT22;6473;51.552;6.716;2023-04-19T11:07:26;20.00;1.00
12817;DHT22;6473;51.552;6.716;2023-04-19T11:09:53;20.70;1.00
12817;DHT22;6473;51.552;6.716;2023-04-19T11:12:20;20.70;1.00
12817;DHT22;6473;51.552;6.716;2023-04-19T11:14:49;19.90;1.00
12817;DHT22;6473;51.552;6.716;2023-04-19T11:17:18;20.50;1.00
12817;DHT22;6473;51.552;6.716;2023-04-19T11:19:52;21.20;1.00
12817;DHT22;6473;51.552;6.716;2023-04-19T11:22:23;21.70;1.00
12817;DHT22;6473;51.552;6.716;2023-04-19T11:24:52;21.60;1.00
12817;DHT22;6473;51.552;6.716;2023-04-19T11:27:20;20.50;1.00
12817;DHT22;6473;51.552;6.716;2023-04-19T11:29:47;20.00;1.00
12817;DHT22;6473;51.552;6.716;2023-04-19T11:32:14;20.00;1.00
12817;DHT22;6473;51.552;6.716;2023-04-19T11:34:40;20.00;1.00
12817;DHT22;6473;51.552;6.716;2023-04-19T11:37:08;20.00;1.00
12817;DHT22;6473;51.552;6.716;2023-04-19T11:39:44;20.90;1.00
12817;DHT22;6473;51.552;6.716;2023-04-19T11:42:17;21.20;1.00
12817;DHT22;6473;51.552;6.716;2023-04-19T11:44:49;21.20;1.00
12817;DHT22;6473;51.552;6.716;2023-04-19T11:47:17;21.20;1.00
12817;DHT22;6473;51.552;6.716;2023-04-19T11:49:44;21.30;1.00
12817;DHT22;6473;51.552;6.716;2023-04-19T11:52:13;20.80;1.00
12817;DHT22;6473;51.552;6.716;2023-04-19T11:54:45;20.80;1.00
12817;DHT22;6473;51.552;6.716;2023-04-19T11:57:12;21.70;1.00
12817;DHT22;6473;51.552;6.716;2023-04-19T12:00:01;22.50;1.00
12817;DHT22;6473;51.552;6.716;2023-04-19T12:02:38;23.00;1.00
12817;DHT22;6473;51.552;6.716;2023-04-19T12:05:09;23.60;1.00
12817;DHT22;6473;51.552;6.716;2023-04-19T12:07:36;23.70;1.00
12817;DHT22;6473;51.552;6.716;2023-04-19T12:10:10;23.50;1.00
12817;DHT22;6473;51.552;6.716;2023-04-19T12:12:37;23.60;1.00
12817;DHT22;6473;51.552;6.716;2023-04-19T12:15:08;23.50;1.00
12817;DHT22;6473;51.552;6.716;2023-04-19T12:17:55;24.60;1.00
12817;DHT22;6473;51.552;6.716;2023-04-19T12:20:29;25.20;1.00
12817;DHT22;6473;51.552;6.716;2023-04-19T12:22:57;24.60;1.00
12817;DHT22;6473;51.552;6.716;2023-04-19T12:25:27;24.70;1.00
12817;DHT22;6473;51.552;6.716;2023-04-19T12:27:54;24.00;1.00
12817;DHT22;6473;51.552;6.716;2023-04-19T12:30:22;24.30;1.00
12817;DHT22;6473;51.552;6.716;2023-04-19T12:32:49;25.10;1.00
12817;DHT22;6473;51.552;6.716;2023-04-19T12:35:20;24.60;1.00
12817;DHT22;6473;51.552;6.716;2023-04-19T12:37:46;25.00;1.00
12817;DHT22;6473;51.552;6.716;2023-04-19T12:40:14;25.30;1.00
12817;DHT22;6473;51.552;6.716;2023-04-19T12:42:40;25.20;1.00
12817;DHT22;6473;51.552;6.716;2023-04-19T12:45:08;26.20;1.00
12817;DHT22;6473;51.552;6.716;2023-04-19T12:47:37;26.80;1.00
12817;DHT22;6473;51.552;6.716;2023-04-19T12:50:05;26.60;1.00
12817;DHT22;6473;51.552;6.716;2023-04-19T12:52:32;27.00;1.00
12817;DHT22;6473;51.552;6.716;2023-04-19T12:54:59;26.80;1.00
12817;DHT22;6473;51.552;6.716;2023-04-19T12:57:26;26.80;1.00
12817;DHT22;6473;51.552;6.716;2023-04-19T12:59:53;26.60;1.00
12817;DHT22;6473;51.552;6.716;2023-04-19T13:02:20;26.90;1.00
12817;DHT22;6473;51.552;6.716;2023-04-19T13:04:48;27.50;1.00
12817;DHT22;6473;51.552;6.716;2023-04-19T13:07:15;26.60;1.00
12817;DHT22;6473;51.552;6.716;2023-04-19T13:09:42;25.30;1.00
12817;DHT22;6473;51.552;6.716;2023-04-19T13:12:09;24.60;1.00
12817;DHT22;6473;51.552;6.716;2023-04-19T13:14:36;23.60;1.00
12817;DHT22;6473;51.552;6.716;2023-04-19T13:17:04;23.50;1.00
12817;DHT22;6473;51.552;6.716;2023-04-19T13:19:31;23.70;1.00
12817;DHT22;6473;51.552;6.716;2023-04-19T13:21:59;25.10;1.00
12817;DHT22;6473;51.552;6.716;2023-04-19T13:24:26;24.70;1.00
12817;DHT22;6473;51.552;6.716;2023-04-19T13:26:53;24.50;1.00
12817;DHT22;6473;51.552;6.716;2023-04-19T13:29:20;24.30;1.00
12817;DHT22;6473;51.552;6.716;2023-04-19T13:31:47;25.00;1.00
12817;DHT22;6473;51.552;6.716;2023-04-19T13:34:14;25.60;1.00
12817;DHT22;6473;51.552;6.716;2023-04-19T13:36:40;26.30;1.00
12817;DHT22;6473;51.552;6.716;2023-04-19T13:39:09;25.70;1.00
12817;DHT22;6473;51.552;6.716;2023-04-19T13:41:36;25.20;1.00
12817;DHT22;6473;51.552;6.716;2023-04-19T13:44:03;24.80;1.00
12817;DHT22;6473;51.552;6.716;2023-04-19T13:46:29;24.30;1.00
12817;DHT22;6473;51.552;6.716;2023-04-19T13:48:57;23.80;1.00
12817;DHT22;6473;51.552;6.716;2023-04-19T13:51:24;23.50;1.00
12817;DHT22;6473;51.552;6.716;2023-04-19T13:53:52;23.40;1.00
12817;DHT22;6473;51.552;6.716;2023-04-19T13:56:20;24.10;1.00
12817;DHT22;6473;51.552;6.716;2023-04-19T13:58:47;24.80;1.00
12817;DHT22;6473;51.552;6.716;2023-04-19T14:01:14;23.70;1.00
12817;DHT22;6473;51.552;6.716;2023-04-19T14:03:41;23.90;1.00
12817;DHT22;6473;51.552;6.716;2023-04-19T14:06:08;24.10;1.00
12817;DHT22;6473;51.552;6.716;2023-04-19T14:08:35;24.50;1.00
12817;DHT22;6473;51.552;6.716;2023-04-19T14:11:02;25.10;1.00
12817;DHT22;6473;51.552;6.716;2023-04-19T14:13:31;25.40;1.00
12817;DHT22;6473;51.552;6.716;2023-04-19T14:15:58;25.10;1.00
12817;DHT22;6473;51.552;6.716;2023-04-19T14:18:25;25.10;1.00
12817;DHT22;6473;51.552;6.716;2023-04-19T14:20:51;24.50;1.00
12817;DHT22;6473;51.552;6.716;2023-04-19T14:23:18;25.20;1.00
12817;DHT22;6473;51.552;6.716;2023-04-19T14:25:45;24.90;1.00
12817;DHT22;6473;51.552;6.716;2023-04-19T14:28:12;25.20;1.00
12817;DHT22;6473;51.552;6.716;2023-04-19T14:30:40;25.00;1.00
12817;DHT22;6473;51.552;6.716;2023-04-19T14:33:07;24.70;1.00
12817;DHT22;6473;51.552;6.716;2023-04-19T14:35:34;24.80;1.00
12817;DHT22;6473;51.552;6.716;2023-04-19T14:38:01;25.20;1.00
12817;DHT22;6473;51.552;6.716;2023-04-19T14:40:28;24.20;1.00
12817;DHT22;6473;51.552;6.716;2023-04-19T14:42:55;22.10;1.00
12817;DHT22;6473;51.552;6.716;2023-04-19T14:45:22;22.10;1.00
12817;DHT22;6473;51.552;6.716;2023-04-19T14:47:50;22.40;1.00
12817;DHT22;6473;51.552;6.716;2023-04-19T14:50:17;22.50;1.00
12817;DHT22;6473;51.552;6.716;2023-04-19T14:52:44;21.40;1.00
12817;DHT22;6473;51.552;6.716;2023-04-19T14:55:11;21.30;1.00
12817;DHT22;6473;51.552;6.716;2023-04-19T14:57:38;21.00;1.00
12817;DHT22;6473;51.552;6.716;2023-04-19T15:00:06;20.30;1.00
12817;DHT22;6473;51.552;6.716;2023-04-19T15:02:33;19.90;1.00
12817;DHT22;6473;51.552;6.716;2023-04-19T15:05:01;20.20;1.00
12817;DHT22;6473;51.552;6.716;2023-04-19T15:14:03;18.20;1.00
12817;DHT22;6473;51.552;6.716;2023-04-19T15:17:16;18.00;1.00
12817;DHT22;6473;51.552;6.716;2023-04-19T15:19:43;18.00;1.00
12817;DHT22;6473;51.552;6.716;2023-04-19T15:22:56;18.10;1.00
12817;DHT22;6473;51.552;6.716;2023-04-19T15:28:40;17.60;1.00
12817;DHT22;6473;51.552;6.716;2023-04-19T15:31:50;17.10;1.00
12817;DHT22;6473;51.552;6.716;2023-04-19T15:34:23;16.90;1.00
12817;DHT22;6473;51.552;6.716;2023-04-19T15:42:35;16.50;1.00
12817;DHT22;6473;51.552;6.716;2023-04-19T15:50:09;16.20;1.00
12817;DHT22;6473;51.552;6.716;2023-04-19T15:52:39;16.10;1.00
12817;DHT22;6473;51.552;6.716;2023-04-19T15:55:08;16.10;1.00
12817;DHT22;6473;51.552;6.716;2023-04-19T16:00:04;15.90;1.00
12817;DHT22;6473;51.552;6.716;2023-04-19T16:02:59;16.00;1.00
12817;DHT22;6473;51.552;6.716;2023-04-19T16:05:36;16.00;1.00
12817;DHT22;6473;51.552;6.716;2023-04-19T16:08:05;15.80;1.00
12817;DHT22;6473;51.552;6.716;2023-04-19T16:10:34;15.80;1.00
12817;DHT22;6473;51.552;6.716;2023-04-19T16:13:03;15.70;1.00
12817;DHT22;6473;51.552;6.716;2023-04-19T16:15:43;15.80;1.00
12817;DHT22;6473;51.552;6.716;2023-04-19T16:18:10;15.80;1.00
12817;DHT22;6473;51.552;6.716;2023-04-19T16:20:39;15.70;1.00
12817;DHT22;6473;51.552;6.716;2023-04-19T16:25:34;15.40;1.00
12817;DHT22;6473;51.552;6.716;2023-04-19T16:28:01;15.40;1.00
12817;DHT22;6473;51.552;6.716;2023-04-19T16:30:28;15.30;1.00
12817;DHT22;6473;51.552;6.716;2023-04-19T16:32:56;15.20;1.00
12817;DHT22;6473;51.552;6.716;2023-04-19T16:35:24;15.10;1.00
12817;DHT22;6473;51.552;6.716;2023-04-19T16:37:51;15.10;1.00
12817;DHT22;6473;51.552;6.716;2023-04-19T16:40:20;15.00;1.00
12817;DHT22;6473;51.552;6.716;2023-04-19T16:42:48;15.00;1.00
12817;DHT22;6473;51.552;6.716;2023-04-19T16:47:46;14.90;1.00
12817;DHT22;6473;51.552;6.716;2023-04-19T16:50:13;14.90;1.00
12817;DHT22;6473;51.552;6.716;2023-04-19T16:52:40;14.90;1.00
12817;DHT22;6473;51.552;6.716;2023-04-19T16:55:07;14.80;1.00
12817;DHT22;6473;51.552;6.716;2023-04-19T16:57:35;14.60;1.00
12817;DHT22;6473;51.552;6.716;2023-04-19T17:00:05;14.60;1.00
12817;DHT22;6473;51.552;6.716;2023-04-19T17:05:01;14.60;1.00
12817;DHT22;6473;51.552;6.716;2023-04-19T17:07:28;14.60;1.00
12817;DHT22;6473;51.552;6.716;2023-04-19T17:09:55;14.50;1.00
12817;DHT22;6473;51.552;6.716;2023-04-19T17:12:23;14.40;1.00
12817;DHT22;6473;51.552;6.716;2023-04-19T17:14:50;14.40;1.00
12817;DHT22;6473;51.552;6.716;2023-04-19T17:17:18;14.30;1.00
12817;DHT22;6473;51.552;6.716;2023-04-19T17:19:45;14.20;1.00
12817;DHT22;6473;51.552;6.716;2023-04-19T17:22:13;14.10;1.00
12817;DHT22;6473;51.552;6.716;2023-04-19T17:24:40;14.10;1.00
12817;DHT22;6473;51.552;6.716;2023-04-19T17:27:07;14.10;1.00
12817;DHT22;6473;51.552;6.716;2023-04-19T17:29:34;14.00;1.00
12817;DHT22;6473;51.552;6.716;2023-04-19T17:32:01;13.90;1.00
12817;DHT22;6473;51.552;6.716;2023-04-19T17:34:30;13.90;1.00
12817;DHT22;6473;51.552;6.716;2023-04-19T17:36:58;13.80;1.00
12817;DHT22;6473;51.552;6.716;2023-04-19T17:39:26;13.60;1.00
12817;DHT22;6473;51.552;6.716;2023-04-19T17:41:54;13.60;1.00
12817;DHT22;6473;51.552;6.716;2023-04-19T17:44:21;13.50;1.00
12817;DHT22;6473;51.552;6.716;2023-04-19T17:46:48;13.40;1.00
12817;DHT22;6473;51.552;6.716;2023-04-19T17:49:15;13.40;1.00
12817;DHT22;6473;51.552;6.716;2023-04-19T17:51:46;13.40;1.00
12817;DHT22;6473;51.552;6.716;2023-04-19T17:54:13;13.40;1.00
12817;DHT22;6473;51.552;6.716;2023-04-19T17:56:40;13.30;1.00
12817;DHT22;6473;51.552;6.716;2023-04-19T17:59:07;13.20;1.00
12817;DHT22;6473;51.552;6.716;2023-04-19T18:04:02;13.10;1.00
12817;DHT22;6473;51.552;6.716;2023-04-19T18:06:29;12.90;1.00